Ana Sayfa
METAR-TAF:

METAR-TAF

Havaalanları :

Stanly County Airport

Albemarle, Kuzey Carolina, Amerika Birleşik Devletleri

Enlem: 35-25-00N, Boylam: 080-09-03W, yükseklik: 186 m

Güncel hava durumu gözlemi

Rapor saat 09:55 UTC de 16 dakika önce yapıldı.
Rüzgar güneybatıdan 4 kt
Sıcaklık 11°C
Nem 100%
Basınç 1011 hPa
Görüş mesafesi: 3.2 km
300 ft yükseklikte çok bulutlu
yağmur

METAR: KVUJ 250955Z AUTO 22004KT 2SM RA OVC003 11/11 A2985 RMK AO2 T01070107

Saat: 05:11 (10:11 UTC)


TAF: eksik

4.000'den fazla havaalanı için hava durumu gözlemleri ve tahminleri (METAR ve TAF raporları).

Kullanılabilir istasyonlar harita üzerinde sarı ve kırmızı noktalarla gösterilir.

İstasyonun adını görmek için fareyi noktanın üzerinde gezdirin.

Sonrasında hava gözlem ve tahminlerini görmek için tıklayın.

Haritayı değiştirmek için: yaklaştırmak için siyah artı işaretli yeşil düğmeye ve uzaklaştırmak için de eksi işaretli düğmeye hızla tıklayın; bitişik haritalar için yeşil okları kullanın.


METAR-TAF: